Time;durP1;ratioP1;P1;durP2;ratioP2;P2;SDS_P1;SDS_P2;PMS_P1;PMS_P2;Temp;Humidity;BMP_temperature;BMP_pressure;BME280_temperature;BME280_humidity;BME280_pressure;Samples;Min_cycle;Max_cycle;Signal;HPM_P1;HPM_P2
2022/11/04 00:01:52;;;;;;;1.90;1.00;;;12.70;76.60;;;;;;5027082;28;20030;-59
2022/11/04 00:04:21;;;;;;;1.17;1.00;;;12.70;76.40;;;;;;5024858;28;20129;-60
2022/11/04 00:06:46;;;;;;;0.88;0.88;;;12.80;76.40;;;;;;5022863;28;20030;-58
2022/11/04 00:09:16;;;;;;;1.20;1.10;;;12.80;76.10;;;;;;5023250;28;20026;-58
2022/11/04 00:14:29;;;;;;;2.05;0.90;;;12.80;76.00;;;;;;5022599;28;20409;-60
2022/11/04 00:33:43;;;;;;;1.20;1.10;;;12.90;75.60;;;;;;5020387;28;20044;-58
2022/11/04 00:36:08;;;;;;;1.02;0.93;;;12.90;75.50;;;;;;5018263;28;20073;-59
2022/11/04 00:38:34;;;;;;;3.90;0.90;;;12.90;76.20;;;;;;5021341;28;20026;-59
2022/11/04 00:41:00;;;;;;;1.10;1.00;;;12.90;75.70;;;;;;5004816;28;20060;-59
2022/11/04 00:43:25;;;;;;;4.57;1.00;;;12.90;75.60;;;;;;5020952;28;20382;-59
2022/11/04 00:45:51;;;;;;;0.90;0.90;;;12.90;75.80;;;;;;5021343;28;20504;-60
2022/11/04 00:48:16;;;;;;;0.80;0.80;;;12.90;75.50;;;;;;5021813;28;20032;-60
2022/11/04 00:50:42;;;;;;;1.95;0.90;;;12.80;75.50;;;;;;4925100;28;20575;-60
2022/11/04 00:53:08;;;;;;;2.55;1.00;;;12.80;75.60;;;;;;5024114;28;20021;-59
2022/11/04 00:55:34;;;;;;;1.30;1.05;;;12.80;75.70;;;;;;5024194;28;20034;-59
2022/11/04 00:57:59;;;;;;;1.30;1.20;;;12.80;75.70;;;;;;5021777;28;20041;-59
2022/11/04 01:00:25;;;;;;;1.00;1.00;;;12.80;75.70;;;;;;5010978;28;20032;-60
2022/11/04 01:02:51;;;;;;;1.15;1.05;;;12.80;75.70;;;;;;5030560;28;20105;-61
2022/11/04 01:05:17;;;;;;;1.10;1.00;;;12.80;75.70;;;;;;5021564;28;20117;-60
2022/11/04 01:07:42;;;;;;;0.90;0.90;;;12.80;75.70;;;;;;5020925;28;20338;-59
2022/11/04 01:10:08;;;;;;;1.35;1.10;;;12.80;75.70;;;;;;5025657;28;20131;-59
2022/11/04 01:12:34;;;;;;;1.30;1.20;;;12.80;75.70;;;;;;5022441;28;20037;-60
2022/11/04 01:15:00;;;;;;;1.20;1.10;;;12.70;75.60;;;;;;5027881;28;20026;-59
2022/11/04 01:17:25;;;;;;;1.55;1.25;;;12.70;75.70;;;;;;5025843;28;20034;-60
2022/11/04 01:19:51;;;;;;;2.35;1.23;;;12.70;75.90;;;;;;5026001;28;20026;-59
2022/11/04 01:22:17;;;;;;;1.40;1.10;;;12.70;76.00;;;;;;5023864;28;20100;-60
2022/11/04 01:24:43;;;;;;;1.30;1.13;;;12.70;76.20;;;;;;5031367;28;20472;-59
2022/11/04 01:27:08;;;;;;;1.30;1.20;;;12.70;76.20;;;;;;5023465;28;20033;-60
2022/11/04 01:29:34;;;;;;;1.55;1.40;;;12.70;76.20;;;;;;5018137;28;20089;-61
2022/11/04 01:32:00;;;;;;;1.73;1.50;;;12.70;76.30;;;;;;5019852;28;20051;-60
2022/11/04 01:34:25;;;;;;;2.00;1.45;;;12.70;76.20;;;;;;5024880;28;20036;-60
2022/11/04 01:36:51;;;;;;;2.35;1.38;;;12.70;76.20;;;;;;5025982;28;20021;-60
2022/11/04 01:39:16;;;;;;;1.60;1.40;;;12.70;76.10;;;;;;5001271;28;20084;-59
2022/11/04 01:41:42;;;;;;;1.40;1.30;;;12.70;75.90;;;;;;4998611;28;20041;-60
2022/11/04 01:44:45;;;;;;;2.50;1.13;;;12.70;75.80;;;;;;5022155;28;20029;-59
2022/11/04 01:47:31;;;;;;;2.55;1.60;;;12.70;75.80;;;;;;5017724;28;20041;-59
2022/11/04 01:50:07;;;;;;;1.40;1.30;;;12.70;75.60;;;;;;5028473;28;20029;-60
2022/11/04 01:52:57;;;;;;;1.90;1.60;;;12.70;75.40;;;;;;5027096;28;20084;-59
2022/11/04 01:55:30;;;;;;;2.88;1.30;;;12.70;75.50;;;;;;5017384;28;20105;-58
2022/11/04 01:58:01;;;;;;;1.65;1.52;;;12.70;75.40;;;;;;5024632;28;20022;-60
2022/11/04 02:00:27;;;;;;;2.65;1.40;;;12.70;75.40;;;;;;5023226;28;20037;-58
2022/11/04 02:02:58;;;;;;;4.38;1.73;;;12.70;75.40;;;;;;5017350;28;20057;-58
2022/11/04 02:05:24;;;;;;;1.98;1.63;;;12.70;75.40;;;;;;5015138;28;20089;-59
2022/11/04 02:07:54;;;;;;;3.35;2.28;;;12.70;75.40;;;;;;5019976;28;20030;-60
2022/11/04 02:10:25;;;;;;;3.00;1.77;;;12.80;75.60;;;;;;5007830;28;20038;-60
2022/11/04 02:12:51;;;;;;;3.58;1.80;;;12.70;75.60;;;;;;5027017;28;20014;-60
2022/11/04 02:15:32;;;;;;;2.90;1.80;;;12.80;75.60;;;;;;5023371;28;20028;-59
2022/11/04 02:18:16;;;;;;;1.40;1.30;;;12.80;75.70;;;;;;5021362;28;20045;-60
2022/11/04 02:21:06;;;;;;;1.20;1.10;;;12.80;75.70;;;;;;5025642;28;20072;-62
2022/11/04 02:24:09;;;;;;;1.33;1.00;;;12.80;75.50;;;;;;5015122;28;20046;-59
2022/11/04 02:27:29;;;;;;;1.50;1.40;;;12.80;75.70;;;;;;5030467;28;20037;-60
2022/11/04 02:30:07;;;;;;;1.35;1.25;;;12.80;75.70;;;;;;4941362;29;20531;-59
2022/11/04 02:32:51;;;;;;;1.73;1.60;;;12.80;75.40;;;;;;4944601;29;20047;-60
2022/11/04 02:35:42;;;;;;;2.45;1.40;;;12.80;75.60;;;;;;4939156;29;20039;-59
2022/11/04 02:38:23;;;;;;;2.33;1.50;;;12.80;75.50;;;;;;4941950;29;20070;-60
2022/11/04 02:41:03;;;;;;;2.85;1.30;;;12.80;75.50;;;;;;4939371;29;20032;-58
2022/11/04 02:43:36;;;;;;;1.80;1.27;;;12.80;75.40;;;;;;4944518;29;20048;-60
2022/11/04 02:46:08;;;;;;;3.10;1.50;;;12.80;75.30;;;;;;4938402;29;20109;-59
2022/11/04 02:48:44;;;;;;;2.83;1.50;;;12.70;75.20;;;;;;4937275;29;20114;-59
2022/11/04 02:51:38;;;;;;;2.58;1.40;;;12.70;75.40;;;;;;4941760;29;20050;-58
2022/11/04 02:54:16;;;;;;;3.92;1.65;;;12.70;75.60;;;;;;4944886;29;20565;-58
2022/11/04 02:56:46;;;;;;;3.33;1.48;;;12.70;75.60;;;;;;4941652;29;20035;-59
2022/11/04 02:59:39;;;;;;;6.63;1.70;;;12.70;75.50;;;;;;4940722;29;20039;-60
2022/11/04 03:02:10;;;;;;;2.80;1.58;;;12.70;75.60;;;;;;4939016;29;20075;-57
2022/11/04 03:04:43;;;;;;;4.90;1.70;;;12.70;75.50;;;;;;5008484;28;20037;-59
2022/11/04 03:07:11;;;;;;;2.50;1.40;;;12.70;75.40;;;;;;5023365;28;20064;-59
2022/11/04 03:09:40;;;;;;;3.83;1.50;;;12.60;75.50;;;;;;5024152;28;20388;-61
2022/11/04 03:12:10;;;;;;;1.67;1.25;;;12.60;75.50;;;;;;5025247;28;20030;-61
2022/11/04 03:14:44;;;;;;;3.10;1.23;;;12.60;75.70;;;;;;5001652;28;20021;-60
2022/11/04 03:17:21;;;;;;;2.15;1.55;;;12.50;75.80;;;;;;5018785;28;20105;-58
2022/11/04 03:19:53;;;;;;;1.30;1.10;;;12.50;75.90;;;;;;5026116;28;20060;-58
2022/11/04 03:22:22;;;;;;;1.85;1.08;;;12.50;75.90;;;;;;5009043;28;20014;-59
2022/11/04 03:24:48;;;;;;;1.67;1.27;;;12.50;75.80;;;;;;5024299;28;20057;-60
2022/11/04 03:27:39;;;;;;;1.77;1.20;;;12.50;75.80;;;;;;5017254;28;20022;-59
2022/11/04 03:30:10;;;;;;;1.20;1.00;;;12.50;76.00;;;;;;5020367;28;20057;-59
2022/11/04 03:32:52;;;;;;;1.48;1.13;;;12.50;75.80;;;;;;5024018;28;20030;-59
2022/11/04 03:35:18;;;;;;;2.20;1.05;;;12.50;75.50;;;;;;5025882;28;20103;-58
2022/11/04 03:37:46;;;;;;;1.92;1.17;;;12.50;75.50;;;;;;5002845;28;20085;-60
2022/11/04 03:40:14;;;;;;;1.88;1.20;;;12.50;75.60;;;;;;5022724;28;20109;-57
2022/11/04 03:42:47;;;;;;;2.40;1.38;;;12.50;75.60;;;;;;5018835;28;20030;-59
2022/11/04 03:45:13;;;;;;;2.15;1.25;;;12.50;75.50;;;;;;4995171;28;20041;-59
2022/11/04 03:47:40;;;;;;;10.13;1.33;;;12.50;75.30;;;;;;5031742;28;20053;-60
2022/11/04 03:50:28;;;;;;;4.45;1.58;;;12.50;75.20;;;;;;4934843;28;20026;-58
2022/11/04 03:52:55;;;;;;;1.10;0.93;;;12.50;75.10;;;;;;5019996;28;20048;-58
2022/11/04 03:55:34;;;;;;;1.23;1.00;;;12.50;75.10;;;;;;5020420;28;20025;-59
2022/11/04 03:58:07;;;;;;;1.02;1.00;;;12.50;75.00;;;;;;5021292;28;20030;-58
2022/11/04 04:00:39;;;;;;;1.33;0.90;;;12.50;74.90;;;;;;5024612;28;20101;-58
2022/11/04 04:03:17;;;;;;;1.20;1.10;;;12.50;74.80;;;;;;5032891;28;20080;-58
2022/11/04 04:05:52;;;;;;;0.93;0.93;;;12.40;74.70;;;;;;5022873;28;20049;-58
2022/11/04 04:08:37;;;;;;;1.35;1.00;;;12.50;74.50;;;;;;5026772;28;20065;-59
2022/11/04 04:11:16;;;;;;;0.80;0.80;;;12.40;74.40;;;;;;5022998;28;20408;-57
2022/11/04 04:14:11;;;;;;;4.13;1.00;;;12.50;74.40;;;;;;5015747;28;20037;-59
2022/11/04 04:16:39;;;;;;;3.05;2.20;;;12.40;74.30;;;;;;5019112;28;20038;-58
2022/11/04 04:19:14;;;;;;;3.70;2.53;;;12.40;74.30;;;;;;5019868;28;20116;-60
2022/11/04 04:21:46;;;;;;;2.05;1.60;;;12.40;74.50;;;;;;5028413;28;20113;-59
2022/11/04 04:29:48;;;;;;;4.82;1.40;;;12.30;74.60;;;;;;5019877;28;20050;-58
2022/11/04 04:32:15;;;;;;;10.27;1.30;;;12.30;74.70;;;;;;5027354;28;20128;-59
2022/11/04 04:34:41;;;;;;;1.20;1.10;;;12.20;74.70;;;;;;4999282;28;20033;-61
2022/11/04 04:37:14;;;;;;;1.73;1.00;;;12.20;74.70;;;;;;5020003;28;20164;-59
2022/11/04 04:45:29;;;;;;;1.75;1.00;;;12.10;74.80;;;;;;5018173;28;20641;-58
2022/11/04 04:47:56;;;;;;;1.52;0.85;;;12.10;74.60;;;;;;5002555;28;20026;-59
2022/11/04 04:50:24;;;;;;;0.82;0.80;;;11.90;74.60;;;;;;5022426;28;20026;-59
2022/11/04 04:52:52;;;;;;;1.20;1.00;;;12.00;74.80;;;;;;5017953;28;20046;-59
2022/11/04 04:55:18;;;;;;;1.50;1.10;;;12.00;74.80;;;;;;5021276;28;20026;-60
2022/11/04 04:57:44;;;;;;;1.48;1.30;;;12.00;74.90;;;;;;5025022;28;20026;-60
2022/11/04 05:00:14;;;;;;;2.40;1.70;;;11.90;74.80;;;;;;5027240;28;20029;-60
2022/11/04 05:02:40;;;;;;;2.95;1.60;;;11.90;75.00;;;;;;5029114;28;20049;-58
2022/11/04 05:05:06;;;;;;;4.20;1.30;;;11.90;74.90;;;;;;5019024;28;20127;-58
2022/11/04 05:07:32;;;;;;;2.15;1.13;;;11.90;74.80;;;;;;5022673;28;20441;-59
2022/11/04 05:09:57;;;;;;;2.13;1.00;;;11.80;74.80;;;;;;5030549;28;20065;-59
2022/11/04 05:12:23;;;;;;;1.38;1.13;;;11.80;74.80;;;;;;5021106;28;20030;-58
2022/11/04 05:14:49;;;;;;;1.50;1.40;;;11.80;74.70;;;;;;5024979;28;20034;-59
2022/11/04 05:17:15;;;;;;;1.77;1.10;;;11.70;74.50;;;;;;5017931;28;20022;-59
2022/11/04 05:19:41;;;;;;;4.95;1.20;;;11.70;74.60;;;;;;5021858;28;20041;-59
2022/11/04 05:22:06;;;;;;;2.50;1.05;;;11.70;74.30;;;;;;5017965;28;20053;-59
2022/11/04 05:24:32;;;;;;;2.95;1.17;;;11.70;74.30;;;;;;5020238;28;20080;-58
2022/11/04 05:26:57;;;;;;;2.85;1.08;;;11.60;74.30;;;;;;5005473;28;20094;-60
2022/11/04 05:29:23;;;;;;;1.98;0.90;;;11.60;74.30;;;;;;5025988;28;20032;-59
2022/11/04 05:31:49;;;;;;;2.83;1.23;;;11.60;74.30;;;;;;5023586;28;20100;-59
2022/11/04 05:34:15;;;;;;;2.17;1.08;;;11.60;74.30;;;;;;5017579;28;20026;-61
2022/11/04 05:36:40;;;;;;;2.45;1.10;;;11.60;74.20;;;;;;5025718;28;20030;-60
2022/11/04 05:39:06;;;;;;;3.25;1.33;;;11.60;74.20;;;;;;5025846;28;20029;-60
2022/11/04 05:41:33;;;;;;;2.17;1.52;;;11.50;74.20;;;;;;5027481;28;20022;-61
2022/11/04 05:44:01;;;;;;;2.25;1.20;;;11.50;74.30;;;;;;5022496;28;20032;-58
2022/11/04 05:46:28;;;;;;;1.98;1.30;;;11.50;74.30;;;;;;5025464;28;20395;-59
2022/11/04 05:48:54;;;;;;;2.00;1.23;;;11.50;74.40;;;;;;5023305;28;20553;-59
2022/11/04 05:51:26;;;;;;;1.83;1.10;;;11.50;74.30;;;;;;5003612;28;20042;-60
2022/11/04 05:53:52;;;;;;;4.65;1.30;;;11.50;74.30;;;;;;5024370;28;20069;-58
2022/11/04 05:56:18;;;;;;;1.45;1.30;;;11.50;74.30;;;;;;5016715;28;20026;-61
2022/11/04 05:58:44;;;;;;;3.63;1.20;;;11.50;74.40;;;;;;5012676;28;20031;-59
2022/11/04 06:01:11;;;;;;;3.45;1.02;;;11.50;74.50;;;;;;5014353;28;20098;-58
2022/11/04 06:03:37;;;;;;;1.40;1.20;;;11.40;74.50;;;;;;5016947;28;20077;-59
2022/11/04 06:06:03;;;;;;;4.70;1.15;;;11.40;74.50;;;;;;5022168;28;20026;-60
2022/11/04 06:08:30;;;;;;;1.48;1.10;;;11.40;74.50;;;;;;5025767;28;20049;-59
2022/11/04 06:10:56;;;;;;;2.13;1.00;;;11.40;74.60;;;;;;5008310;28;20064;-59
2022/11/04 06:13:22;;;;;;;1.08;0.90;;;11.40;74.60;;;;;;5020397;28;20037;-58
2022/11/04 06:15:47;;;;;;;2.20;1.25;;;11.40;74.70;;;;;;5024095;28;20033;-59
2022/11/04 06:18:13;;;;;;;2.15;1.10;;;11.40;74.70;;;;;;5019453;28;20021;-58
2022/11/04 06:20:39;;;;;;;3.63;1.27;;;11.40;74.70;;;;;;5018462;28;20137;-59
2022/11/04 06:23:04;;;;;;;1.27;0.95;;;11.40;74.60;;;;;;5030417;28;20054;-58
2022/11/04 06:25:30;;;;;;;2.30;1.00;;;11.30;74.60;;;;;;5008120;28;20030;-59
2022/11/04 06:27:56;;;;;;;3.22;1.15;;;11.30;74.60;;;;;;5021892;28;20026;-59
2022/11/04 06:30:22;;;;;;;2.92;1.48;;;11.30;74.70;;;;;;5021840;28;20034;-59
2022/11/04 06:32:48;;;;;;;2.35;1.50;;;11.30;74.70;;;;;;5028579;28;20025;-58
2022/11/04 06:35:13;;;;;;;3.90;2.15;;;11.30;74.80;;;;;;5024885;28;20060;-59
2022/11/04 06:37:39;;;;;;;7.43;2.92;;;11.30;74.80;;;;;;5026636;28;20054;-59
2022/11/04 06:40:05;;;;;;;6.60;2.58;;;11.20;74.70;;;;;;5003672;28;20490;-58
2022/11/04 06:42:31;;;;;;;2.45;1.30;;;11.20;74.60;;;;;;5023247;28;20142;-57
2022/11/04 06:44:57;;;;;;;3.28;1.15;;;11.20;74.50;;;;;;5016194;28;20025;-58
2022/11/04 06:47:22;;;;;;;3.50;1.30;;;11.20;74.40;;;;;;5024999;28;20034;-58
2022/11/04 06:49:48;;;;;;;1.27;0.93;;;11.10;74.20;;;;;;5017969;28;20014;-59
2022/11/04 06:52:14;;;;;;;1.70;0.90;;;11.10;74.40;;;;;;5023551;28;20089;-59
2022/11/04 06:54:39;;;;;;;3.95;0.90;;;11.00;74.40;;;;;;5016760;28;20021;-58
2022/11/04 06:57:05;;;;;;;3.50;0.93;;;11.00;74.40;;;;;;5036342;28;20081;-60
2022/11/04 06:59:31;;;;;;;1.10;0.80;;;11.00;74.40;;;;;;5031087;28;20030;-58
2022/11/04 07:01:56;;;;;;;2.70;1.05;;;10.90;74.50;;;;;;5019557;28;20030;-60
2022/11/04 07:04:22;;;;;;;2.85;0.82;;;10.90;74.70;;;;;;5032481;28;20079;-59
2022/11/04 07:06:48;;;;;;;1.30;0.80;;;10.90;74.90;;;;;;5028546;28;20109;-57
2022/11/04 07:09:37;;;;;;;4.28;1.63;;;10.90;74.90;;;;;;5032742;28;20041;-59
2022/11/04 07:12:03;;;;;;;3.42;1.58;;;10.90;75.20;;;;;;5023862;28;20088;-59
2022/11/04 07:22:22;;;;;;;4.90;1.40;;;11.00;75.60;;;;;;4953204;28;20050;-58
2022/11/04 07:26:11;;;;;;;2.05;1.65;;;11.00;75.60;;;;;;4964219;28;20093;-59
2022/11/04 07:29:30;;;;;;;2.67;1.65;;;11.00;75.80;;;;;;4953769;29;20046;-59
2022/11/04 07:33:10;;;;;;;3.67;1.90;;;11.10;75.20;;;;;;4947058;29;20047;-60
2022/11/04 07:36:35;;;;;;;5.50;3.30;;;11.10;75.50;;;;;;4940179;29;20327;-59
2022/11/04 07:43:36;;;;;;;6.53;3.97;;;11.10;75.10;;;;;;4946239;28;20157;-58
2022/11/04 07:47:07;;;;;;;5.25;2.55;;;11.10;75.10;;;;;;4924289;29;20073;-60
2022/11/04 07:53:54;;;;;;;6.05;2.97;;;11.10;75.20;;;;;;4933873;29;20059;-58
2022/11/04 07:57:19;;;;;;;3.10;2.10;;;11.10;75.30;;;;;;4943509;29;20067;-60
2022/11/04 08:00:08;;;;;;;4.13;2.50;;;11.10;75.20;;;;;;4964156;28;20109;-61
2022/11/04 08:03:15;;;;;;;4.68;2.60;;;11.10;75.10;;;;;;4957300;28;20134;-60
2022/11/04 08:06:02;;;;;;;3.65;1.80;;;11.20;75.20;;;;;;4956340;28;20031;-59
2022/11/04 08:09:19;;;;;;;4.90;1.67;;;11.20;75.20;;;;;;4955548;28;20034;-58
2022/11/04 08:12:26;;;;;;;3.05;1.27;;;11.20;75.40;;;;;;4964401;28;20051;-59
2022/11/04 08:15:25;;;;;;;3.10;1.40;;;11.20;75.20;;;;;;4964645;28;20058;-59
2022/11/04 08:17:56;;;;;;;4.25;1.50;;;11.20;75.30;;;;;;4970908;28;20466;-58
2022/11/04 08:20:45;;;;;;;7.40;2.15;;;11.20;75.20;;;;;;5005974;28;20042;-59
2022/11/04 08:23:41;;;;;;;3.25;2.20;;;11.30;75.20;;;;;;5024658;28;20034;-59
2022/11/04 08:26:24;;;;;;;3.92;2.22;;;11.30;75.00;;;;;;5021637;28;20046;-59
2022/11/04 08:29:00;;;;;;;4.05;2.15;;;11.30;75.00;;;;;;5008310;28;20038;-61
2022/11/04 08:31:30;;;;;;;6.25;2.83;;;11.30;75.00;;;;;;5006804;28;20048;-61
2022/11/04 08:34:07;;;;;;;5.80;2.70;;;11.30;75.30;;;;;;4995033;28;20049;-58
2022/11/04 08:36:39;;;;;;;6.38;3.05;;;11.30;75.40;;;;;;5026337;28;20072;-60
2022/11/04 08:39:08;;;;;;;6.43;2.97;;;11.40;75.50;;;;;;5019984;28;20203;-60
2022/11/04 08:41:36;;;;;;;4.65;3.40;;;11.40;75.40;;;;;;5009459;28;20022;-59
2022/11/04 08:44:03;;;;;;;6.93;3.13;;;11.40;75.40;;;;;;5014397;28;20026;-59
2022/11/04 08:46:36;;;;;;;4.75;2.90;;;11.50;75.50;;;;;;5020217;28;20022;-60
2022/11/04 08:49:02;;;;;;;9.05;3.05;;;11.50;75.60;;;;;;4993298;28;20127;-60
2022/11/04 08:51:30;;;;;;;6.20;2.70;;;11.50;75.60;;;;;;4995634;28;20034;-59
2022/11/04 08:53:56;;;;;;;5.35;3.00;;;11.60;75.60;;;;;;5021745;28;20053;-60
2022/11/04 08:56:24;;;;;;;4.97;2.75;;;11.60;75.50;;;;;;5016850;28;20279;-61
2022/11/04 08:58:50;;;;;;;4.63;2.83;;;11.70;75.30;;;;;;5019310;28;20026;-61
2022/11/04 09:01:20;;;;;;;5.68;2.53;;;11.70;75.10;;;;;;5018626;28;20025;-58
2022/11/04 09:03:46;;;;;;;3.92;2.40;;;11.70;75.00;;;;;;5019198;28;20513;-61
2022/11/04 09:06:20;;;;;;;2.17;1.80;;;11.80;75.10;;;;;;5021684;28;20026;-60
2022/11/04 09:08:46;;;;;;;4.57;2.60;;;11.80;75.10;;;;;;5025416;28;20025;-58
2022/11/04 09:11:14;;;;;;;4.75;1.83;;;11.90;75.10;;;;;;5012746;28;20092;-61
2022/11/04 09:13:40;;;;;;;3.95;2.30;;;11.90;74.80;;;;;;5022103;28;20064;-59
2022/11/04 09:16:08;;;;;;;3.65;2.20;;;12.00;74.60;;;;;;5029668;28;20021;-60
2022/11/04 09:18:33;;;;;;;5.63;2.20;;;12.00;74.40;;;;;;5020143;28;20231;-61
2022/11/04 09:21:03;;;;;;;3.83;2.38;;;12.00;74.40;;;;;;5021646;28;20293;-59
2022/11/04 09:23:30;;;;;;;3.80;2.33;;;12.10;74.20;;;;;;5020785;28;20026;-60
2022/11/04 09:25:57;;;;;;;4.60;2.38;;;12.00;74.00;;;;;;4988856;28;20033;-61
2022/11/04 09:28:23;;;;;;;7.13;2.60;;;12.00;74.00;;;;;;5024970;28;20033;-60
2022/11/04 09:30:50;;;;;;;6.70;3.28;;;12.00;74.10;;;;;;5028823;28;20055;-59
2022/11/04 09:33:16;;;;;;;5.32;3.08;;;12.00;74.30;;;;;;5025661;28;20057;-59
2022/11/04 09:35:42;;;;;;;5.13;3.10;;;12.10;74.40;;;;;;5003728;28;20034;-59
2022/11/04 09:38:08;;;;;;;4.97;2.67;;;12.10;74.40;;;;;;5027460;28;20033;-60
2022/11/04 09:40:36;;;;;;;4.68;2.55;;;12.10;75.20;;;;;;5020568;28;20097;-59
2022/11/04 09:43:23;;;;;;;6.05;2.38;;;12.20;74.50;;;;;;4998880;28;20085;-59
2022/11/04 09:45:50;;;;;;;3.92;2.35;;;12.20;74.40;;;;;;5018422;28;20044;-58
2022/11/04 09:48:43;;;;;;;4.75;2.42;;;12.30;74.30;;;;;;5024617;28;20024;-60
2022/11/04 09:51:11;;;;;;;4.68;2.40;;;12.30;74.20;;;;;;4977373;28;20041;-60
2022/11/04 09:53:42;;;;;;;13.93;3.08;;;12.30;74.10;;;;;;5007203;28;20087;-58
2022/11/04 09:56:15;;;;;;;5.00;2.92;;;12.40;74.30;;;;;;5018073;28;20044;-59
2022/11/04 09:58:41;;;;;;;4.93;2.70;;;12.40;74.60;;;;;;5013980;28;20037;-59
2022/11/04 10:01:34;;;;;;;5.93;2.28;;;12.50;74.70;;;;;;5024000;28;20030;-58
2022/11/04 10:04:12;;;;;;;8.90;2.50;;;12.60;74.10;;;;;;5018264;28;20049;-59
2022/11/04 10:06:53;;;;;;;3.47;2.15;;;12.60;73.60;;;;;;5004151;28;20037;-58
2022/11/04 10:09:27;;;;;;;4.85;2.47;;;12.70;73.60;;;;;;5023587;28;20030;-61
2022/11/04 10:11:55;;;;;;;5.97;2.30;;;12.80;73.70;;;;;;5024733;28;20045;-58
2022/11/04 10:14:52;;;;;;;7.45;2.38;;;12.80;73.60;;;;;;5023940;28;20033;-60
2022/11/04 10:17:34;;;;;;;8.15;2.50;;;12.90;73.10;;;;;;5012987;28;20028;-59
2022/11/04 10:20:19;;;;;;;5.65;2.22;;;12.90;72.90;;;;;;5005460;28;20036;-59
2022/11/04 10:23:11;;;;;;;7.47;2.60;;;13.00;72.70;;;;;;5018750;28;20029;-61
2022/11/04 10:25:42;;;;;;;10.10;2.88;;;13.00;72.90;;;;;;5023669;28;20560;-59
2022/11/04 10:28:16;;;;;;;8.18;2.65;;;13.10;73.00;;;;;;5024159;28;20029;-59
2022/11/04 10:30:45;;;;;;;8.73;2.72;;;13.10;72.90;;;;;;5001074;28;20042;-59
2022/11/04 10:33:25;;;;;;;16.17;3.25;;;13.20;73.00;;;;;;5021322;28;20045;-59
2022/11/04 10:35:56;;;;;;;14.07;3.88;;;13.30;72.60;;;;;;5013854;28;20014;-61
2022/11/04 10:38:28;;;;;;;8.95;3.65;;;13.30;72.50;;;;;;5000043;28;20041;-60
2022/11/04 10:40:55;;;;;;;6.38;3.00;;;13.40;72.50;;;;;;5011983;28;20030;-60
2022/11/04 10:43:38;;;;;;;8.75;2.95;;;13.40;72.50;;;;;;5019761;28;20033;-61
2022/11/04 10:46:20;;;;;;;6.97;2.85;;;13.50;72.00;;;;;;5004891;28;20026;-60
2022/11/04 10:49:11;;;;;;;7.38;2.88;;;13.50;71.70;;;;;;5015057;28;20079;-60
2022/11/04 10:51:37;;;;;;;6.13;2.50;;;13.60;71.60;;;;;;4967587;28;20050;-61
2022/11/04 10:54:07;;;;;;;7.32;3.05;;;13.60;72.00;;;;;;5019982;28;20072;-60
2022/11/04 10:56:44;;;;;;;8.07;2.92;;;13.70;71.80;;;;;;5016712;28;20103;-60
2022/11/04 10:59:26;;;;;;;7.50;2.80;;;13.70;71.50;;;;;;5021364;28;20037;-59
2022/11/04 11:02:00;;;;;;;7.47;2.95;;;13.80;71.10;;;;;;5021505;28;20018;-59
2022/11/04 11:04:28;;;;;;;10.48;3.58;;;13.80;71.00;;;;;;5022834;28;20109;-59
2022/11/04 11:06:58;;;;;;;8.30;3.30;;;13.90;71.20;;;;;;5022157;28;20058;-60
2022/11/04 11:09:30;;;;;;;10.50;3.42;;;13.90;71.00;;;;;;5024963;28;20031;-61
2022/11/04 11:12:01;;;;;;;12.32;3.50;;;14.00;70.90;;;;;;5023563;28;20096;-60
2022/11/04 11:14:27;;;;;;;12.88;3.92;;;14.00;70.50;;;;;;5015266;28;20033;-60
2022/11/04 11:16:56;;;;;;;9.63;3.22;;;14.00;70.80;;;;;;5022950;28;20025;-60
2022/11/04 11:19:23;;;;;;;11.25;3.28;;;14.10;71.00;;;;;;5020773;28;20050;-59
2022/11/04 11:21:54;;;;;;;11.85;3.78;;;14.20;70.90;;;;;;5022618;28;20061;-59
2022/11/04 11:24:23;;;;;;;16.73;4.00;;;14.20;70.40;;;;;;5005539;28;20054;-59
2022/11/04 11:26:58;;;;;;;12.52;3.42;;;14.30;69.70;;;;;;5025033;28;20021;-58
2022/11/04 11:29:39;;;;;;;11.57;3.55;;;14.40;69.60;;;;;;5013032;28;20030;-60
2022/11/04 11:32:26;;;;;;;12.65;3.05;;;14.30;68.70;;;;;;5024625;28;20068;-60
2022/11/04 11:34:52;;;;;;;10.43;2.65;;;14.30;68.80;;;;;;5019906;28;20049;-60
2022/11/04 11:37:24;;;;;;;13.18;2.80;;;14.30;68.50;;;;;;5014769;28;20096;-59
2022/11/04 11:39:50;;;;;;;9.48;2.70;;;14.40;68.00;;;;;;5016011;28;20029;-60
2022/11/04 11:42:19;;;;;;;8.55;2.65;;;14.30;68.40;;;;;;5012081;28;20057;-62
2022/11/04 11:44:47;;;;;;;9.38;2.75;;;14.30;67.50;;;;;;5017963;28;20117;-60
2022/11/04 11:47:28;;;;;;;7.35;2.20;;;14.30;67.60;;;;;;5031750;28;20033;-61
2022/11/04 11:50:14;;;;;;;9.43;2.30;;;14.30;67.60;;;;;;5019540;28;20717;-60
2022/11/04 11:52:41;;;;;;;7.95;2.47;;;14.30;67.70;;;;;;5020541;28;20026;-58
2022/11/04 11:55:26;;;;;;;8.52;2.17;;;14.40;68.40;;;;;;5020240;28;20046;-59
2022/11/04 11:58:14;;;;;;;;;;;14.40;67.10;;;;;;5016784;28;20033;-60
2022/11/04 12:00:54;;;;;;;5.95;1.90;;;14.50;68.30;;;;;;5015480;28;19913;-60
2022/11/04 12:03:53;;;;;;;4.55;1.70;;;14.50;66.90;;;;;;5015251;28;20109;-59
2022/11/04 12:06:28;;;;;;;7.43;1.95;;;14.60;65.70;;;;;;4962408;28;20057;-59
2022/11/04 12:09:05;;;;;;;8.05;2.33;;;14.60;67.50;;;;;;5015292;28;20124;-60
2022/11/04 12:12:10;;;;;;;11.25;2.83;;;14.60;66.70;;;;;;5023847;28;20042;-58
2022/11/04 12:14:41;;;;;;;5.57;2.20;;;14.70;66.90;;;;;;4998460;28;20499;-59
2022/11/04 12:17:25;;;;;;;4.70;2.22;;;14.70;67.30;;;;;;5018581;28;20030;-60
2022/11/04 12:20:06;;;;;;;4.68;1.70;;;14.80;67.30;;;;;;5003581;28;20030;-59
2022/11/04 12:22:44;;;;;;;9.32;2.38;;;14.80;66.60;;;;;;5015040;28;20068;-61
2022/11/04 12:25:25;;;;;;;10.63;3.10;;;14.80;67.20;;;;;;5027638;28;20025;-58
2022/11/04 12:27:57;;;;;;;9.85;3.58;;;14.90;66.60;;;;;;4999454;28;20074;-58
2022/11/04 12:30:24;;;;;;;11.93;3.28;;;14.90;67.20;;;;;;5022824;28;20051;-60
2022/11/04 12:33:05;;;;;;;8.98;2.95;;;15.00;67.10;;;;;;5025310;28;20052;-59
2022/11/04 12:35:49;;;;;;;11.07;3.67;;;15.00;66.30;;;;;;5022404;28;20500;-59
2022/11/04 12:38:39;;;;;;;9.63;3.10;;;15.00;66.90;;;;;;5005085;28;20022;-59
2022/11/04 12:41:26;;;;;;;11.45;3.80;;;15.00;65.70;;;;;;5017687;28;20110;-62
2022/11/04 12:44:04;;;;;;;10.70;3.38;;;15.00;65.90;;;;;;5020230;28;20053;-60
2022/11/04 12:46:35;;;;;;;14.40;3.65;;;14.90;65.90;;;;;;5016303;28;20093;-58
2022/11/04 12:49:28;;;;;;;9.32;3.30;;;14.90;66.20;;;;;;5016540;28;20033;-60
2022/11/04 12:52:00;;;;;;;8.38;3.17;;;14.90;65.60;;;;;;5018881;28;20034;-59
2022/11/04 12:54:47;;;;;;;7.07;2.80;;;14.90;66.20;;;;;;5019711;28;20026;-60
2022/11/04 12:57:45;;;;;;;9.93;3.03;;;14.90;65.60;;;;;;5019140;28;20026;-60
2022/11/04 13:00:14;;;;;;;8.40;2.90;;;15.00;65.50;;;;;;5018392;28;20509;-61
2022/11/04 13:02:43;;;;;;;8.82;2.90;;;15.00;66.10;;;;;;5023075;28;20137;-59
2022/11/04 13:05:32;;;;;;;9.45;2.75;;;15.00;66.10;;;;;;5022401;28;20115;-60
2022/11/04 13:08:23;;;;;;;9.25;2.80;;;15.00;66.20;;;;;;5018091;28;20022;-59
2022/11/04 13:11:02;;;;;;;6.88;2.40;;;15.00;65.50;;;;;;5018524;28;20096;-59
2022/11/04 13:13:36;;;;;;;6.40;2.35;;;15.00;65.30;;;;;;5018211;28;20030;-58
2022/11/04 13:16:05;;;;;;;;;;;15.00;65.10;;;;;;5022020;28;20133;-60
2022/11/04 13:18:35;;;;;;;7.22;1.70;;;15.00;65.30;;;;;;5025959;28;19917;-61
2022/11/04 13:21:08;;;;;;;6.10;2.30;;;15.00;65.90;;;;;;5002804;28;20074;-60
2022/11/04 13:23:43;;;;;;;5.70;2.05;;;15.00;65.10;;;;;;5018636;28;20044;-60
2022/11/04 13:26:29;;;;;;;2.92;1.30;;;15.00;64.90;;;;;;5015283;28;20030;-59
2022/11/04 13:29:15;;;;;;;3.95;1.20;;;15.00;64.20;;;;;;5012326;28;20235;-58
2022/11/04 13:31:50;;;;;;;3.17;1.48;;;15.00;64.80;;;;;;5029347;28;20037;-59
2022/11/04 13:34:58;;;;;;;3.72;1.15;;;15.00;64.70;;;;;;5021804;28;20083;-61
2022/11/04 13:37:31;;;;;;;3.35;1.02;;;14.90;63.30;;;;;;5017564;28;20125;-60
2022/11/04 13:40:25;;;;;;;6.77;1.07;;;14.90;64.20;;;;;;5022264;28;20082;-58
2022/11/04 13:43:36;;;;;;;3.85;1.20;;;14.90;64.00;;;;;;5017509;28;20037;-59
2022/11/04 13:45:54;;;;;;;2.78;1.35;;;14.80;64.40;;;;;;5016643;28;20047;-60
2022/11/04 13:48:28;;;;;;;4.30;1.13;;;14.80;63.40;;;;;;5022067;28;20478;-59
2022/11/04 13:50:58;;;;;;;3.00;1.08;;;14.80;63.60;;;;;;5006017;28;20050;-60
2022/11/04 13:53:42;;;;;;;2.63;0.95;;;14.80;63.90;;;;;;5023416;28;20064;-59
2022/11/04 13:56:09;;;;;;;2.90;0.95;;;14.70;62.50;;;;;;5021712;28;20026;-60
2022/11/04 13:58:34;;;;;;;3.67;1.10;;;14.70;63.60;;;;;;5022685;28;20085;-59
2022/11/04 14:01:22;;;;;;;4.43;1.10;;;14.70;63.30;;;;;;5028080;28;20026;-60
2022/11/04 14:04:16;;;;;;;9.27;1.17;;;14.70;62.10;;;;;;5015128;28;20073;-60
2022/11/04 14:07:07;;;;;;;1.92;1.00;;;14.70;62.20;;;;;;5016801;28;20042;-59
2022/11/04 14:09:52;;;;;;;5.18;1.30;;;14.70;62.40;;;;;;5014062;28;20026;-59
2022/11/04 14:12:26;;;;;;;2.38;1.00;;;14.70;62.90;;;;;;5026745;28;20030;-59